createdAt,value
2018-07-14T00:01:49.676Z,5.63
2018-07-14T00:04:19.272Z,6.27
2018-07-14T00:06:49.079Z,5.90
2018-07-14T00:09:18.897Z,6.27
2018-07-14T00:11:49.011Z,5.27
2018-07-14T00:14:18.963Z,6.00
2018-07-14T00:16:48.787Z,5.93
2018-07-14T00:19:18.542Z,5.80
2018-07-14T00:21:48.601Z,6.07
2018-07-14T00:24:18.374Z,5.97
2018-07-14T00:26:48.280Z,5.70
2018-07-14T00:29:18.070Z,6.10
2018-07-14T00:31:47.943Z,5.73
2018-07-14T00:34:17.661Z,5.73
2018-07-14T00:36:47.416Z,5.50
2018-07-14T00:39:17.276Z,6.00
2018-07-14T00:41:47.156Z,6.23
2018-07-14T00:44:17.033Z,5.73
2018-07-14T00:46:46.862Z,6.10
2018-07-14T00:49:16.802Z,6.10
2018-07-14T00:51:46.675Z,6.37
2018-07-14T00:54:16.435Z,6.47
2018-07-14T00:56:46.469Z,6.43
2018-07-14T00:59:16.359Z,6.57
2018-07-14T01:01:46.076Z,6.47
2018-07-14T01:04:15.916Z,5.87
2018-07-14T01:06:45.874Z,5.90
2018-07-14T01:09:15.580Z,6.20
2018-07-14T01:11:45.302Z,6.57
2018-07-14T01:14:15.344Z,6.00
2018-07-14T01:16:45.178Z,6.53
2018-07-14T01:19:14.904Z,6.33
2018-07-14T01:21:44.609Z,6.23
2018-07-14T01:24:14.398Z,6.43
2018-07-14T01:26:44.947Z,6.03
2018-07-14T01:29:15.639Z,6.93
2018-07-14T01:31:45.320Z,6.87
2018-07-14T01:34:15.091Z,6.60
2018-07-14T01:36:44.838Z,6.70
2018-07-14T01:39:14.257Z,6.67
2018-07-14T01:41:43.962Z,7.27
2018-07-14T01:44:13.379Z,6.70
2018-07-14T01:46:42.756Z,6.93
2018-07-14T01:49:12.473Z,6.50
2018-07-14T01:51:41.815Z,7.03
2018-07-14T01:54:11.519Z,7.30
2018-07-14T01:56:41.461Z,7.17
2018-07-14T01:59:11.193Z,6.67
2018-07-14T02:01:40.935Z,7.43
2018-07-14T02:04:10.794Z,7.13
2018-07-14T02:06:40.521Z,7.27
2018-07-14T02:09:10.392Z,7.20
2018-07-14T02:11:40.140Z,8.00
2018-07-14T02:14:09.876Z,7.47
2018-07-14T02:16:39.835Z,8.27
2018-07-14T02:19:09.657Z,8.13
2018-07-14T02:21:39.331Z,7.43
2018-07-14T02:24:09.093Z,7.20
2018-07-14T02:26:38.969Z,7.90
2018-07-14T02:29:08.739Z,8.50
2018-07-14T02:31:38.519Z,8.00
2018-07-14T02:34:08.294Z,8.13
2018-07-14T02:36:38.006Z,7.93
2018-07-14T02:39:08.216Z,7.80
2018-07-14T02:41:38.170Z,7.90
2018-07-14T02:44:08.179Z,8.80
2018-07-14T02:46:37.985Z,7.73
2018-07-14T02:49:07.706Z,9.13
2018-07-14T02:51:37.209Z,8.63
2018-07-14T02:54:07.054Z,8.20
2018-07-14T02:56:36.856Z,8.70
2018-07-14T02:59:06.714Z,8.90
2018-07-14T03:01:36.615Z,8.77
2018-07-14T03:04:06.374Z,9.70
2018-07-14T03:06:36.160Z,9.40
2018-07-14T03:09:07.721Z,9.83
2018-07-14T03:11:37.590Z,9.60
2018-07-14T03:14:07.422Z,9.40
2018-07-14T03:16:37.160Z,9.27
2018-07-14T03:19:06.890Z,9.20
2018-07-14T03:21:36.708Z,8.97
2018-07-14T03:24:06.604Z,8.60
2018-07-14T03:26:36.309Z,9.13
2018-07-14T03:29:06.114Z,9.50
2018-07-14T03:31:35.897Z,9.23
2018-07-14T03:34:05.773Z,10.00
2018-07-14T03:36:35.643Z,9.50
2018-07-14T03:39:05.634Z,10.03
2018-07-14T03:41:35.349Z,9.37
2018-07-14T03:44:05.082Z,9.20
2018-07-14T03:46:34.770Z,9.73
2018-07-14T03:49:04.685Z,9.50
2018-07-14T03:51:34.487Z,10.13
2018-07-14T03:54:04.553Z,10.00
2018-07-14T03:56:34.272Z,9.67
2018-07-14T03:59:04.097Z,10.37
2018-07-14T04:01:34.069Z,9.87
2018-07-14T04:04:13.279Z,10.40
2018-07-14T04:06:44.669Z,10.20
2018-07-14T04:09:16.948Z,11.27
2018-07-14T04:11:49.253Z,11.93
2018-07-14T04:14:18.987Z,10.60
2018-07-14T04:16:48.455Z,11.97
2018-07-14T04:19:18.462Z,11.70
2018-07-14T04:21:48.331Z,11.93
2018-07-14T04:24:18.080Z,11.43
2018-07-14T04:26:47.453Z,12.33
2018-07-14T04:29:17.220Z,13.07
2018-07-14T04:31:46.586Z,12.10
2018-07-14T04:34:16.441Z,12.00
2018-07-14T04:36:46.150Z,13.27
2018-07-14T04:39:16.062Z,11.83
2018-07-14T04:41:45.793Z,11.90
2018-07-14T04:44:15.498Z,12.93
2018-07-14T04:46:45.370Z,13.40
2018-07-14T04:49:15.429Z,13.03
2018-07-14T04:51:45.119Z,12.47
2018-07-14T04:54:14.480Z,13.40
2018-07-14T04:56:44.236Z,12.20
2018-07-14T04:59:13.937Z,13.40
2018-07-14T05:01:43.669Z,14.17
2018-07-14T05:04:13.406Z,13.53
2018-07-14T05:06:43.197Z,14.33
2018-07-14T05:09:12.922Z,13.87
2018-07-14T05:11:42.718Z,14.37
2018-07-14T05:14:12.538Z,14.10
2018-07-14T05:16:42.322Z,13.83
2018-07-14T05:19:12.060Z,14.90
2018-07-14T05:21:45.382Z,13.97
2018-07-14T05:24:15.325Z,14.30
2018-07-14T05:26:47.281Z,13.90
2018-07-14T05:29:17.118Z,13.63
2018-07-14T05:31:46.973Z,14.07
2018-07-14T05:34:16.821Z,13.10
2018-07-14T05:36:46.914Z,14.73
2018-07-14T05:39:24.730Z,15.03
2018-07-14T05:41:54.583Z,14.70
2018-07-14T05:44:24.378Z,14.93
2018-07-14T05:46:54.433Z,15.10
2018-07-14T05:49:24.219Z,15.00
2018-07-14T05:51:54.189Z,15.73
2018-07-14T05:54:23.982Z,14.90
2018-07-14T05:56:53.815Z,15.27
2018-07-14T05:59:23.557Z,15.10
2018-07-14T06:01:53.358Z,14.50
2018-07-14T06:04:23.730Z,15.17
2018-07-14T06:06:53.459Z,15.60
2018-07-14T06:09:23.129Z,14.87
2018-07-14T06:11:52.945Z,15.97
2018-07-14T06:14:22.710Z,15.50
2018-07-14T06:16:52.498Z,14.33
2018-07-14T06:19:22.425Z,16.17
2018-07-14T06:21:52.284Z,16.40
2018-07-14T06:24:22.238Z,15.53
2018-07-14T06:26:52.006Z,15.07
2018-07-14T06:29:23.104Z,16.20
2018-07-14T06:32:01.967Z,14.63
2018-07-14T06:34:46.471Z,15.93
2018-07-14T06:37:17.091Z,16.40
2018-07-14T06:39:47.762Z,16.97
2018-07-14T06:42:17.985Z,16.23
2018-07-14T06:44:49.040Z,16.50
2018-07-14T06:47:20.112Z,16.90
2018-07-14T06:49:51.925Z,16.43
2018-07-14T06:52:22.085Z,17.90
2018-07-14T06:54:52.790Z,16.83
2018-07-14T06:57:23.323Z,17.87
2018-07-14T06:59:54.545Z,17.67
2018-07-14T07:02:25.580Z,17.37
2018-07-14T07:05:14.718Z,17.20
2018-07-14T07:07:44.517Z,18.57
2018-07-14T07:10:14.292Z,18.17
2018-07-14T07:12:44.127Z,18.40
2018-07-14T07:15:13.989Z,19.23
2018-07-14T07:17:43.811Z,17.73
2018-07-14T07:20:13.813Z,19.57
2018-07-14T07:22:43.555Z,18.00
2018-07-14T07:25:13.586Z,17.87
2018-07-14T07:27:43.324Z,17.37
2018-07-14T07:30:13.266Z,16.77
2018-07-14T07:32:43.326Z,16.33
2018-07-14T07:35:13.287Z,17.80
2018-07-14T07:37:43.051Z,16.40
2018-07-14T07:40:12.882Z,15.50
2018-07-14T07:42:42.711Z,16.17
2018-07-14T07:45:12.499Z,14.97
2018-07-14T07:47:42.117Z,15.10
2018-07-14T07:50:12.288Z,14.00
2018-07-14T07:52:42.066Z,13.97
2018-07-14T07:55:12.011Z,14.43
2018-07-14T07:57:41.567Z,13.47
2018-07-14T08:00:11.570Z,14.27
2018-07-14T08:02:44.609Z,15.10
2018-07-14T08:05:14.637Z,13.83
2018-07-14T08:07:44.374Z,15.43
2018-07-14T08:10:18.426Z,13.40
2018-07-14T08:12:49.625Z,13.03
2018-07-14T08:15:19.986Z,13.70
2018-07-14T08:17:53.626Z,12.73
2018-07-14T08:20:23.382Z,12.53
2018-07-14T08:22:53.251Z,14.20
2018-07-14T08:25:22.767Z,12.10
2018-07-14T08:27:52.582Z,12.97
2018-07-14T08:30:22.495Z,13.70
2018-07-14T08:32:52.332Z,14.47
2018-07-14T08:35:22.189Z,15.50
2018-07-14T08:37:51.588Z,14.83
2018-07-14T08:40:21.496Z,12.63
2018-07-14T08:42:51.518Z,13.83
2018-07-14T08:45:21.333Z,12.20
2018-07-14T08:47:51.151Z,10.67
2018-07-14T08:50:21.009Z,11.30
2018-07-14T08:52:50.798Z,11.13
2018-07-14T08:55:20.603Z,12.70
2018-07-14T08:57:50.349Z,12.03
2018-07-14T09:00:21.267Z,11.70
2018-07-14T09:02:52.895Z,12.77
2018-07-14T09:05:22.348Z,12.47
2018-07-14T09:07:53.319Z,10.83
2018-07-14T09:10:24.896Z,11.80
2018-07-14T09:12:58.160Z,10.40
2018-07-14T09:15:28.179Z,11.33
2018-07-14T09:17:57.641Z,11.13
2018-07-14T09:20:31.009Z,9.80
2018-07-14T09:23:05.148Z,10.40
2018-07-14T09:25:36.060Z,9.10
2018-07-14T09:28:08.931Z,9.60
2018-07-14T09:30:39.798Z,9.90
2018-07-14T09:33:10.666Z,10.40
2018-07-14T09:35:40.734Z,8.77
2018-07-14T09:38:10.634Z,9.00
2018-07-14T09:40:40.497Z,8.30
2018-07-14T09:43:10.266Z,9.13
2018-07-14T09:45:40.043Z,9.50
2018-07-14T09:48:11.218Z,8.03
2018-07-14T09:50:41.379Z,8.60
2018-07-14T09:53:11.454Z,8.50
2018-07-14T09:55:41.221Z,8.10
2018-07-14T09:58:11.085Z,8.80
2018-07-14T10:00:46.750Z,10.50
2018-07-14T10:03:16.600Z,9.77
2018-07-14T10:05:46.859Z,8.30
2018-07-14T10:08:18.819Z,8.83
2018-07-14T10:10:50.510Z,8.70
2018-07-14T10:13:20.975Z,9.47
2018-07-14T10:15:51.553Z,9.63
2018-07-14T10:18:21.255Z,8.00
2018-07-14T10:20:51.096Z,8.97
2018-07-14T10:23:21.012Z,9.60
2018-07-14T10:25:51.157Z,9.07
2018-07-14T10:28:21.094Z,11.10
2018-07-14T10:30:50.902Z,8.13
2018-07-14T10:33:20.745Z,9.77
2018-07-14T10:35:50.608Z,10.17
2018-07-14T10:38:20.026Z,8.67
2018-07-14T10:40:49.936Z,7.50
2018-07-14T10:43:21.166Z,9.13
2018-07-14T10:45:50.976Z,8.37
2018-07-14T10:48:20.981Z,9.13
2018-07-14T10:50:50.933Z,10.30
2018-07-14T10:53:20.682Z,9.80
2018-07-14T10:55:50.589Z,8.87
2018-07-14T10:58:20.375Z,8.53
2018-07-14T11:00:50.188Z,9.13
2018-07-14T11:03:20.100Z,6.90
2018-07-14T11:05:50.066Z,8.03
2018-07-14T11:08:19.976Z,8.83
2018-07-14T11:10:49.736Z,7.30
2018-07-14T11:13:19.524Z,7.97
2018-07-14T11:15:49.265Z,8.63
2018-07-14T11:18:19.102Z,10.00
2018-07-14T11:20:49.142Z,7.63
2018-07-14T11:23:19.094Z,7.47
2018-07-14T11:25:48.511Z,9.93
2018-07-14T11:28:17.944Z,8.47
2018-07-14T11:30:47.701Z,8.87
2018-07-14T11:33:17.456Z,8.93
2018-07-14T11:35:47.167Z,8.37
2018-07-14T11:38:17.124Z,8.23
2018-07-14T11:40:46.531Z,7.07
2018-07-14T11:43:16.210Z,7.03
2018-07-14T11:45:45.907Z,8.03
2018-07-14T11:48:15.759Z,9.03
2018-07-14T11:50:45.638Z,9.03
2018-07-14T11:53:41.800Z,9.57
2018-07-14T11:56:11.819Z,9.57
2018-07-14T11:58:41.689Z,7.47
2018-07-14T12:01:11.557Z,8.47
2018-07-14T12:03:42.093Z,8.13
2018-07-14T12:06:11.630Z,8.53
2018-07-14T12:08:41.600Z,8.10
2018-07-14T12:11:11.738Z,7.90
2018-07-14T12:13:41.868Z,6.87
2018-07-14T12:16:11.722Z,7.40
2018-07-14T12:18:41.770Z,7.13
2018-07-14T12:21:11.216Z,8.50
2018-07-14T12:23:41.118Z,7.00
2018-07-14T12:26:10.525Z,7.60
2018-07-14T12:28:40.498Z,6.33
2018-07-14T12:31:10.496Z,5.30
2018-07-14T12:33:40.514Z,5.87
2018-07-14T12:36:10.427Z,6.03
2018-07-14T12:38:40.317Z,5.40
2018-07-14T12:41:10.386Z,5.07
2018-07-14T12:43:40.342Z,4.93
2018-07-14T12:46:09.785Z,4.13
2018-07-14T12:48:39.765Z,4.80
2018-07-14T12:51:10.120Z,5.40
2018-07-14T12:53:40.002Z,5.80
2018-07-14T12:56:10.018Z,5.50
2018-07-14T12:58:39.973Z,5.90
2018-07-14T13:01:11.083Z,4.60
2018-07-14T13:03:41.564Z,5.03
2018-07-14T13:06:11.511Z,5.10
2018-07-14T13:08:41.388Z,5.83
2018-07-14T13:11:11.677Z,5.43
2018-07-14T13:13:44.477Z,5.60
2018-07-14T13:16:14.486Z,5.17
2018-07-14T13:18:44.529Z,5.00
2018-07-14T13:21:14.512Z,4.80
2018-07-14T13:23:44.574Z,4.70
2018-07-14T13:26:14.367Z,5.50
2018-07-14T13:28:44.092Z,5.10
2018-07-14T13:31:14.360Z,4.50
2018-07-14T13:33:43.842Z,4.40
2018-07-14T13:36:13.975Z,4.60
2018-07-14T13:39:10.656Z,4.00
2018-07-14T13:41:40.796Z,4.10
2018-07-14T13:44:10.735Z,4.23
2018-07-14T13:46:40.827Z,4.20
2018-07-14T13:49:10.746Z,4.27
2018-07-14T13:51:40.681Z,4.40
2018-07-14T13:54:10.864Z,3.53
2018-07-14T13:56:41.295Z,3.60
2018-07-14T13:59:11.689Z,3.70
2018-07-14T14:01:41.585Z,3.77
2018-07-14T14:04:11.754Z,3.53
2018-07-14T14:06:42.025Z,3.70
2018-07-14T14:09:12.176Z,4.23
2018-07-14T14:11:41.631Z,4.20
2018-07-14T14:14:11.611Z,3.70
2018-07-14T14:16:41.622Z,3.67
2018-07-14T14:19:11.741Z,3.73
2018-07-14T14:21:42.072Z,3.40
2018-07-14T14:24:12.185Z,3.40
2018-07-14T14:26:42.177Z,3.50
2018-07-14T14:29:12.265Z,4.10
2018-07-14T14:31:42.236Z,3.50
2018-07-14T14:34:12.356Z,3.50
2018-07-14T14:36:42.479Z,3.20
2018-07-14T14:39:12.369Z,3.07
2018-07-14T14:41:43.432Z,3.07
2018-07-14T14:44:13.420Z,3.40
2018-07-14T14:46:43.661Z,3.77
2018-07-14T14:49:13.585Z,4.33
2018-07-14T14:51:43.677Z,4.33
2018-07-14T14:54:13.519Z,4.80
2018-07-14T14:56:44.018Z,4.60
2018-07-14T14:59:20.869Z,5.47
2018-07-14T15:01:50.966Z,6.08
2018-07-14T15:04:21.039Z,4.55
2018-07-14T15:06:51.100Z,4.08
2018-07-14T15:09:21.064Z,4.30
2018-07-14T15:11:50.702Z,4.00
2018-07-14T15:14:20.787Z,3.52
2018-07-14T15:16:51.067Z,3.50
2018-07-14T15:19:21.169Z,3.95
2018-07-14T15:21:51.037Z,3.87
2018-07-14T15:24:21.164Z,4.30
2018-07-14T15:26:51.237Z,4.40
2018-07-14T15:29:21.416Z,4.90
2018-07-14T15:31:51.358Z,4.87
2018-07-14T15:34:21.628Z,4.80
2018-07-14T15:36:51.596Z,4.40
2018-07-14T15:39:21.968Z,5.47
2018-07-14T15:41:52.592Z,5.77
2018-07-14T15:44:22.836Z,7.00
2018-07-14T15:46:52.828Z,5.77
2018-07-14T15:49:22.803Z,4.97
2018-07-14T15:51:53.127Z,4.20
2018-07-14T15:54:23.400Z,3.70
2018-07-14T15:56:53.204Z,3.27
2018-07-14T15:59:22.741Z,3.47
2018-07-14T16:01:52.812Z,3.80
2018-07-14T16:04:22.668Z,3.57
2018-07-14T16:06:52.801Z,3.17
2018-07-14T16:09:22.666Z,3.40
2018-07-14T16:11:52.843Z,3.10
2018-07-14T16:14:22.810Z,3.07
2018-07-14T16:16:52.740Z,2.90
2018-07-14T16:19:23.173Z,2.70
2018-07-14T16:21:53.318Z,2.40
2018-07-14T16:24:23.315Z,3.10
2018-07-14T16:26:53.484Z,3.30
2018-07-14T16:29:23.317Z,3.47
2018-07-14T16:31:53.510Z,2.70
2018-07-14T16:34:23.524Z,2.63
2018-07-14T16:36:53.398Z,2.77
2018-07-14T16:39:23.302Z,3.30
2018-07-14T16:41:52.863Z,2.97
2018-07-14T16:44:22.785Z,3.17
2018-07-14T16:46:52.937Z,2.63
2018-07-14T16:49:23.012Z,2.43
2018-07-14T16:51:56.485Z,2.40
2018-07-14T16:54:25.989Z,2.57
2018-07-14T16:56:55.476Z,2.47
2018-07-14T16:59:25.672Z,2.70
2018-07-14T17:01:55.520Z,2.73
2018-07-14T17:04:25.548Z,3.00
2018-07-14T17:06:55.303Z,3.10
2018-07-14T17:09:25.112Z,2.30
2018-07-14T17:11:54.941Z,2.47
2018-07-14T17:14:25.043Z,2.80
2018-07-14T17:16:55.015Z,2.80
2018-07-14T17:19:25.003Z,3.30
2018-07-14T17:21:55.015Z,2.80
2018-07-14T17:24:25.049Z,2.57
2018-07-14T17:26:55.343Z,3.57
2018-07-14T17:29:25.169Z,3.10
2018-07-14T17:31:55.069Z,3.07
2018-07-14T17:34:25.176Z,4.90
2018-07-14T17:36:55.088Z,3.57
2018-07-14T17:39:25.029Z,4.40
2018-07-14T17:41:55.003Z,3.93
2018-07-14T17:44:24.862Z,2.83
2018-07-14T17:46:54.966Z,3.27
2018-07-14T17:49:26.827Z,2.70
2018-07-14T17:51:59.300Z,3.00
2018-07-14T17:54:29.329Z,2.90
2018-07-14T17:56:59.290Z,2.87
2018-07-14T17:59:29.379Z,3.30
2018-07-14T18:01:59.268Z,3.17
2018-07-14T18:04:29.213Z,4.53
2018-07-14T18:06:59.207Z,3.83
2018-07-14T18:09:29.279Z,2.67
2018-07-14T18:11:59.182Z,3.10
2018-07-14T18:14:29.197Z,2.60
2018-07-14T18:16:59.235Z,2.57
2018-07-14T18:19:28.828Z,3.00
2018-07-14T18:21:58.852Z,2.70
2018-07-14T18:24:28.764Z,2.60
2018-07-14T18:26:58.792Z,2.60
2018-07-14T18:29:28.699Z,3.00
2018-07-14T18:31:58.670Z,2.53
2018-07-14T18:34:29.084Z,2.27
2018-07-14T18:36:59.180Z,2.50
2018-07-14T18:39:28.802Z,2.40
2018-07-14T18:41:58.759Z,2.50
2018-07-14T18:44:28.800Z,2.50
2018-07-14T18:46:58.832Z,2.40
2018-07-14T18:49:28.952Z,2.70
2018-07-14T18:51:58.599Z,2.23
2018-07-14T18:54:28.813Z,2.40
2018-07-14T18:56:58.749Z,2.40
2018-07-14T18:59:28.793Z,2.37
2018-07-14T19:01:58.816Z,4.30
2018-07-14T19:04:29.001Z,2.60
2018-07-14T19:06:59.021Z,2.57
2018-07-14T19:09:29.081Z,2.17
2018-07-14T19:11:59.170Z,2.00
2018-07-14T19:14:29.334Z,2.00
2018-07-14T19:17:00.293Z,1.87
2018-07-14T19:19:30.429Z,1.90
2018-07-14T19:22:00.938Z,2.00
2018-07-14T19:24:31.243Z,2.20
2018-07-14T19:27:00.964Z,2.20
2018-07-14T19:29:31.044Z,2.20
2018-07-14T19:32:01.311Z,1.83
2018-07-14T19:34:30.987Z,2.40
2018-07-14T19:37:00.767Z,2.10
2018-07-14T19:39:31.886Z,1.83
2018-07-14T19:42:01.802Z,2.00
2018-07-14T19:44:31.785Z,2.20
2018-07-14T19:47:01.861Z,2.03
2018-07-14T19:49:32.640Z,2.00
2018-07-14T19:52:02.808Z,2.33
2018-07-14T19:54:32.963Z,1.90
2018-07-14T19:57:02.840Z,2.00
2018-07-14T19:59:32.761Z,2.53
2018-07-14T20:02:03.174Z,2.37
2018-07-14T20:04:33.066Z,2.20
2018-07-14T20:07:03.008Z,2.60
2018-07-14T20:09:33.132Z,2.67
2018-07-14T20:12:03.175Z,2.13
2018-07-14T20:14:33.177Z,2.40
2018-07-14T20:17:03.116Z,2.37
2018-07-14T20:19:33.053Z,2.17
2018-07-14T20:22:03.202Z,2.40
2018-07-14T20:24:33.970Z,2.17
2018-07-14T20:27:03.952Z,1.90
2018-07-14T20:29:33.879Z,2.23
2018-07-14T20:32:03.563Z,2.20
2018-07-14T20:34:33.088Z,2.20
2018-07-14T20:37:02.744Z,2.67
2018-07-14T20:39:32.565Z,2.10
2018-07-14T20:42:02.832Z,2.10
2018-07-14T20:44:32.651Z,2.20
2018-07-14T20:47:02.343Z,2.43
2018-07-14T20:49:32.559Z,2.03
2018-07-14T20:52:02.898Z,2.40
2018-07-14T20:54:32.892Z,2.40
2018-07-14T20:57:02.894Z,2.20
2018-07-14T20:59:32.733Z,2.33
2018-07-14T21:02:02.578Z,2.30
2018-07-14T21:04:32.036Z,2.60
2018-07-14T21:07:01.887Z,2.63
2018-07-14T21:09:32.150Z,2.60
2018-07-14T21:12:02.352Z,2.40
2018-07-14T21:14:32.329Z,2.20
2018-07-14T21:17:02.364Z,2.27
2018-07-14T21:19:32.325Z,2.10
2018-07-14T21:22:02.296Z,2.13
2018-07-14T21:24:31.923Z,2.43
2018-07-14T21:27:01.825Z,2.03
2018-07-14T21:29:31.276Z,2.07
2018-07-14T21:32:01.195Z,2.57
2018-07-14T21:34:31.328Z,2.23
2018-07-14T21:37:01.173Z,2.20
2018-07-14T21:39:30.661Z,2.47
2018-07-14T21:42:00.656Z,2.10
2018-07-14T21:44:30.622Z,1.70
2018-07-14T21:47:00.621Z,2.10
2018-07-14T21:49:30.320Z,2.00
2018-07-14T21:52:00.142Z,1.80
2018-07-14T21:54:30.241Z,1.97
2018-07-14T21:57:00.158Z,2.10
2018-07-14T21:59:30.585Z,2.23
2018-07-14T22:02:04.720Z,1.73
2018-07-14T22:04:36.522Z,2.20
2018-07-14T22:07:06.494Z,2.10
2018-07-14T22:09:36.580Z,2.00
2018-07-14T22:12:07.029Z,2.17
2018-07-14T22:14:37.041Z,2.07
2018-07-14T22:17:07.024Z,1.80
2018-07-14T22:19:37.297Z,2.13
2018-07-14T22:22:07.260Z,2.40
2018-07-14T22:24:37.085Z,2.83
2018-07-14T22:27:07.164Z,2.60
2018-07-14T22:29:36.701Z,2.60
2018-07-14T22:32:08.179Z,2.30
2018-07-14T22:34:38.224Z,2.40
2018-07-14T22:37:08.109Z,2.50
2018-07-14T22:39:38.641Z,2.60
2018-07-14T22:42:08.733Z,2.80
2018-07-14T22:44:38.995Z,2.53
2018-07-14T22:47:08.929Z,2.60
2018-07-14T22:49:38.802Z,2.37
2018-07-14T22:52:09.262Z,2.63
2018-07-14T22:54:39.418Z,2.20
2018-07-14T22:57:09.485Z,2.47
2018-07-14T22:59:39.396Z,2.53
2018-07-14T23:02:09.413Z,2.90
2018-07-14T23:04:39.522Z,2.40
2018-07-14T23:07:09.557Z,2.33
2018-07-14T23:09:39.560Z,2.40
2018-07-14T23:12:09.408Z,2.60
2018-07-14T23:14:39.440Z,2.10
2018-07-14T23:17:09.688Z,2.67
2018-07-14T23:19:39.517Z,2.70
2018-07-14T23:22:09.519Z,2.40
2018-07-14T23:24:39.454Z,2.50
2018-07-14T23:27:09.269Z,2.53
2018-07-14T23:29:39.099Z,2.40
2018-07-14T23:32:08.981Z,2.30
2018-07-14T23:34:39.191Z,2.43
2018-07-14T23:37:08.716Z,2.57
2018-07-14T23:39:38.770Z,2.37
2018-07-14T23:42:08.784Z,2.30
2018-07-14T23:44:38.643Z,2.47
2018-07-14T23:47:08.673Z,2.43
2018-07-14T23:49:38.757Z,2.47
2018-07-14T23:52:08.584Z,2.30
2018-07-14T23:54:38.072Z,2.43
2018-07-14T23:57:08.561Z,2.47
2018-07-14T23:59:38.736Z,2.63
